Saint Francis, South Dakota
Current Conditions -  °F | °C
As of 11:52 AM on Friday 24 Oct 2014 (Local Time) from KVTN Reporting Station
Clear Clear  
Wind Chill: 72°   Ceiling: Unl
Heat Index: 72°   Visibility: 10mi
Dew Point: 37°   Wind: 6mph
Humidity: 28%   Direction: 310°NW
Pressure: 29.98"   Gusts: NA
Location:  43.14°N, 100.91°W
Report Text: KVTN 241752Z AUTO 31005KT 10SM CLR 22/03 A2998 RMK AO2 SLP146 T02220028 10222 20044 50004
Loading
Personal Weather Stations






























Interactive Weather Map
Tropical Storm Tracking
New forecast layout! Learn more

10-Day Weather Forecast

Advertisements
Track Severe Weather on mobile